AAL3213 TNCM-KMIA
Flight info
| Callsign | AAL3213 |
|---|---|
| Flight time | N/A |
| Altitude | 34000 |
| Route | MODOR2 JUICE B520 STT RTE6 SJU DCT ACONY Y308 MADIZ VIICE2 |
| Aircraft | A321/M-SDE3FGHIRWY/LB1 |
Departure
| Time | 2026-05-04 18:54 |
|---|---|
| Airport | Princess Juliana International Airport (TNCM) |
Arrival
| Time | N/A |
|---|---|
| Airport | Miami International Airport (KMIA) |
| Time | Latitude | Longitude | Altitude | Speed | Heading |
|---|---|---|---|---|---|
| 2026-05-04 18:26 | 18.04182 | -63.11239 | 21 ft | 0 kts | 172° |
| 2026-05-04 18:37 | 18.04177 | -63.11239 | 21 ft | 2 kts | 174° |
| 2026-05-04 18:37 | 18.04170 | -63.11239 | 23 ft | 3 kts | 180° |
| 2026-05-04 18:37 | 18.04158 | -63.11245 | 22 ft | 3 kts | 214° |
| 2026-05-04 18:37 | 18.04126 | -63.11281 | 21 ft | 0 kts | 219° |
| 2026-05-04 18:43 | 18.04126 | -63.11280 | 21 ft | 0 kts | 219° |
| 2026-05-04 18:49 | 18.04125 | -63.11281 | 21 ft | 0 kts | 219° |
| 2026-05-04 18:49 | 18.04117 | -63.11286 | 22 ft | 0 kts | 206° |
| 2026-05-04 18:50 | 18.04116 | -63.11286 | 22 ft | 1 kts | 201° |
| 2026-05-04 18:50 | 18.04018 | -63.11417 | 21 ft | 25 kts | 260° |
| 2026-05-04 18:50 | 18.04015 | -63.11436 | 21 ft | 25 kts | 261° |
| 2026-05-04 18:51 | 18.03964 | -63.11863 | 22 ft | 21 kts | 284° |
| 2026-05-04 18:51 | 18.03966 | -63.11946 | 22 ft | 3 kts | 186° |
| 2026-05-04 18:51 | 18.03951 | -63.11924 | 22 ft | 5 kts | 113° |
| 2026-05-04 18:51 | 18.03951 | -63.11889 | 23 ft | 10 kts | 83° |
| 2026-05-04 18:52 | 18.03952 | -63.11884 | 24 ft | 0 kts | 82° |
| 2026-05-04 18:53 | 18.03952 | -63.11883 | 24 ft | 1 kts | 82° |
| 2026-05-04 18:53 | 18.04131 | -63.10603 | 26 ft | 147 kts | 84° |
| 2026-05-04 18:54 | 18.04225 | -63.09729 | 223 ft | 164 kts | 82° |
| 2026-05-04 18:54 | 18.02598 | -63.07369 | 1399 ft | 191 kts | 162° |
| 2026-05-04 18:55 | 18.00994 | -63.06977 | 1642 ft | 218 kts | 165° |
| 2026-05-04 18:55 | 17.97425 | -63.06494 | 2440 ft | 260 kts | 188° |
| 2026-05-04 18:55 | 17.96138 | -63.07025 | 3051 ft | 268 kts | 210° |
| 2026-05-04 18:56 | 17.95296 | -63.07791 | 3519 ft | 273 kts | 228° |
| 2026-05-04 18:56 | 17.95052 | -63.08112 | 3628 ft | 278 kts | 229° |
| 2026-05-04 18:57 | 17.94474 | -63.09068 | 4413 ft | 213 kts | 242° |
| 2026-05-04 18:57 | 17.94110 | -63.10604 | 5604 ft | 222 kts | 273° |
| 2026-05-04 18:57 | 17.94654 | -63.12234 | 5935 ft | 256 kts | 302° |
| 2026-05-04 18:57 | 17.95676 | -63.13909 | 6072 ft | 288 kts | 298° |
| 2026-05-04 18:58 | 17.96516 | -63.15912 | 6589 ft | 296 kts | 289° |
| 2026-05-04 18:58 | 17.97182 | -63.18000 | 7225 ft | 299 kts | 286° |
| 2026-05-04 18:58 | 17.97786 | -63.20093 | 7915 ft | 300 kts | 286° |
| 2026-05-04 18:58 | 17.98396 | -63.22194 | 8590 ft | 301 kts | 286° |
| 2026-05-04 18:59 | 17.99042 | -63.24324 | 9268 ft | 302 kts | 287° |
| 2026-05-04 18:59 | 17.99704 | -63.26419 | 9962 ft | 303 kts | 288° |
| 2026-05-04 18:59 | 18.00401 | -63.28560 | 10291 ft | 318 kts | 288° |
| 2026-05-04 18:59 | 18.01137 | -63.30783 | 10415 ft | 337 kts | 288° |
| 2026-05-04 19:00 | 18.01955 | -63.33228 | 10558 ft | 354 kts | 288° |
| 2026-05-04 19:00 | 18.02784 | -63.35698 | 10951 ft | 360 kts | 289° |
| 2026-05-04 19:00 | 18.03623 | -63.38192 | 11433 ft | 364 kts | 289° |
| 2026-05-04 19:00 | 18.04445 | -63.40642 | 11904 ft | 366 kts | 289° |
| 2026-05-04 19:01 | 18.05329 | -63.43288 | 12417 ft | 370 kts | 289° |
| 2026-05-04 19:01 | 18.06179 | -63.45840 | 12890 ft | 373 kts | 289° |
| 2026-05-04 19:01 | 18.07039 | -63.48420 | 13357 ft | 376 kts | 289° |
| 2026-05-04 19:01 | 18.07907 | -63.51025 | 13846 ft | 378 kts | 289° |
| 2026-05-04 19:02 | 18.08779 | -63.53641 | 14269 ft | 380 kts | 289° |
| 2026-05-04 19:02 | 18.09665 | -63.56304 | 14752 ft | 381 kts | 289° |
| 2026-05-04 19:02 | 18.10434 | -63.58618 | 14959 ft | 380 kts | 289° |
| 2026-05-04 19:02 | 18.11302 | -63.61240 | 15034 ft | 379 kts | 288° |
| 2026-05-04 19:03 | 18.12175 | -63.63891 | 15051 ft | 378 kts | 288° |
| 2026-05-04 19:03 | 18.12996 | -63.66477 | 15047 ft | 378 kts | 284° |
| 2026-05-04 19:03 | 18.13508 | -63.69118 | 15044 ft | 377 kts | 279° |
| 2026-05-04 19:03 | 18.13970 | -63.71865 | 15047 ft | 377 kts | 279° |
| 2026-05-04 19:04 | 18.14428 | -63.74585 | 15046 ft | 377 kts | 279° |
| 2026-05-04 19:04 | 18.14733 | -63.76385 | 15046 ft | 377 kts | 279° |
| 2026-05-04 19:04 | 18.15347 | -63.80020 | 15181 ft | 376 kts | 279° |
| 2026-05-04 19:04 | 18.15792 | -63.82643 | 16288 ft | 354 kts | 280° |
| 2026-05-04 19:05 | 18.16080 | -63.84333 | 17085 ft | 340 kts | 280° |
| 2026-05-04 19:05 | 18.16480 | -63.86707 | 18270 ft | 319 kts | 280° |
| 2026-05-04 19:05 | 18.16858 | -63.88957 | 18968 ft | 315 kts | 280° |
| 2026-05-04 19:05 | 18.17250 | -63.91278 | 19075 ft | 330 kts | 280° |
| 2026-05-04 19:06 | 18.17657 | -63.93712 | 19194 ft | 345 kts | 280° |
| 2026-05-04 19:06 | 18.18081 | -63.96247 | 19313 ft | 360 kts | 280° |
| 2026-05-04 19:06 | 18.18501 | -63.98764 | 19424 ft | 372 kts | 280° |
| 2026-05-04 19:06 | 18.18953 | -64.01453 | 19546 ft | 385 kts | 280° |
| 2026-05-04 19:07 | 18.19430 | -64.04295 | 19807 ft | 393 kts | 280° |
| 2026-05-04 19:07 | 18.19908 | -64.07143 | 20157 ft | 398 kts | 280° |
| 2026-05-04 19:07 | 18.20388 | -64.10018 | 20511 ft | 402 kts | 280° |
| 2026-05-04 19:07 | 18.20871 | -64.12932 | 20836 ft | 406 kts | 280° |
| 2026-05-04 19:08 | 18.21355 | -64.15865 | 21114 ft | 409 kts | 280° |
| 2026-05-04 19:08 | 18.21851 | -64.18870 | 21403 ft | 412 kts | 280° |
| 2026-05-04 19:08 | 18.22340 | -64.21812 | 21683 ft | 415 kts | 280° |
| 2026-05-04 19:08 | 18.22846 | -64.24856 | 21957 ft | 419 kts | 280° |
| 2026-05-04 19:09 | 18.23348 | -64.27878 | 22233 ft | 422 kts | 280° |
| 2026-05-04 19:09 | 18.23859 | -64.30935 | 22509 ft | 425 kts | 280° |
| 2026-05-04 19:09 | 18.24372 | -64.34011 | 22780 ft | 428 kts | 280° |
| 2026-05-04 19:09 | 18.24889 | -64.37110 | 23049 ft | 431 kts | 280° |
| 2026-05-04 19:10 | 18.25408 | -64.40227 | 23321 ft | 434 kts | 280° |
| 2026-05-04 19:10 | 18.25927 | -64.43367 | 23592 ft | 437 kts | 280° |
| 2026-05-04 19:10 | 18.26445 | -64.46525 | 23842 ft | 439 kts | 280° |
| 2026-05-04 19:10 | 18.26966 | -64.49698 | 24118 ft | 441 kts | 280° |
| 2026-05-04 19:11 | 18.27492 | -64.52882 | 24397 ft | 442 kts | 280° |
| 2026-05-04 19:11 | 18.28028 | -64.56110 | 24689 ft | 443 kts | 280° |
| 2026-05-04 19:11 | 18.28557 | -64.59304 | 24978 ft | 443 kts | 280° |
| 2026-05-04 19:11 | 18.29084 | -64.62504 | 25266 ft | 444 kts | 280° |
| 2026-05-04 19:12 | 18.29606 | -64.65709 | 25549 ft | 445 kts | 280° |
| 2026-05-04 19:12 | 18.30650 | -64.72144 | 26108 ft | 447 kts | 281° |
| 2026-05-04 19:12 | 18.31183 | -64.75413 | 26393 ft | 448 kts | 281° |
| 2026-05-04 19:13 | 18.31713 | -64.78650 | 26670 ft | 448 kts | 281° |
| 2026-05-04 19:13 | 18.32245 | -64.81887 | 26939 ft | 449 kts | 281° |
| 2026-05-04 19:13 | 18.32786 | -64.85181 | 27230 ft | 450 kts | 281° |
| 2026-05-04 19:13 | 18.33315 | -64.88427 | 27501 ft | 451 kts | 281° |
| 2026-05-04 19:14 | 18.33851 | -64.91732 | 27774 ft | 452 kts | 281° |
| 2026-05-04 19:14 | 18.34378 | -64.94997 | 28040 ft | 453 kts | 281° |
| 2026-05-04 19:14 | 18.34895 | -64.98282 | 28284 ft | 455 kts | 278° |
| 2026-05-04 19:14 | 18.35060 | -65.01625 | 28531 ft | 458 kts | 269° |
| 2026-05-04 19:15 | 18.34692 | -65.04982 | 28757 ft | 461 kts | 259° |
| 2026-05-04 19:15 | 18.33812 | -65.08297 | 28983 ft | 464 kts | 253° |
| 2026-05-04 19:15 | 18.32838 | -65.11474 | 29197 ft | 465 kts | 253° |
| 2026-05-04 19:15 | 18.31847 | -65.14725 | 29414 ft | 466 kts | 253° |
| 2026-05-04 19:16 | 18.30860 | -65.17979 | 29632 ft | 467 kts | 254° |
| 2026-05-04 19:16 | 18.30112 | -65.21307 | 29805 ft | 467 kts | 263° |
| 2026-05-04 19:16 | 18.29878 | -65.24742 | 29998 ft | 466 kts | 272° |
| 2026-05-04 19:16 | 18.30153 | -65.28132 | 30159 ft | 465 kts | 281° |
| 2026-05-04 19:17 | 18.30817 | -65.31465 | 30300 ft | 466 kts | 283° |
| 2026-05-04 19:17 | 18.31508 | -65.34793 | 30516 ft | 465 kts | 283° |
| 2026-05-04 19:17 | 18.32194 | -65.38118 | 30741 ft | 464 kts | 283° |
| 2026-05-04 19:17 | 18.32877 | -65.41443 | 30970 ft | 463 kts | 283° |
| 2026-05-04 19:18 | 18.33557 | -65.44756 | 31192 ft | 462 kts | 283° |
| 2026-05-04 19:18 | 18.34215 | -65.47964 | 31412 ft | 461 kts | 283° |
| 2026-05-04 19:18 | 18.34892 | -65.51263 | 31636 ft | 460 kts | 283° |
| 2026-05-04 19:18 | 18.35566 | -65.54553 | 31853 ft | 459 kts | 283° |
| 2026-05-04 19:19 | 18.36237 | -65.57832 | 32072 ft | 458 kts | 283° |
| 2026-05-04 19:19 | 18.36908 | -65.61103 | 32302 ft | 457 kts | 283° |
| 2026-05-04 19:19 | 18.37578 | -65.64367 | 32526 ft | 456 kts | 282° |
| 2026-05-04 19:19 | 18.38246 | -65.67630 | 32726 ft | 455 kts | 282° |
| 2026-05-04 19:20 | 18.38912 | -65.70882 | 32951 ft | 454 kts | 282° |
| 2026-05-04 19:20 | 18.39586 | -65.74173 | 33151 ft | 453 kts | 282° |
| 2026-05-04 19:20 | 18.40247 | -65.77414 | 33350 ft | 453 kts | 282° |
| 2026-05-04 19:20 | 18.40907 | -65.80655 | 33540 ft | 452 kts | 282° |
| 2026-05-04 19:21 | 18.41567 | -65.83892 | 33737 ft | 452 kts | 282° |
| 2026-05-04 19:21 | 18.42228 | -65.87134 | 33933 ft | 452 kts | 282° |
| 2026-05-04 19:21 | 18.42664 | -65.89275 | 34006 ft | 451 kts | 282° |
| 2026-05-04 19:22 | 18.44477 | -65.96673 | 34032 ft | 446 kts | 292° |
| 2026-05-04 19:22 | 18.47826 | -66.02143 | 34035 ft | 448 kts | 312° |
| 2026-05-04 19:23 | 18.52333 | -66.06711 | 34037 ft | 449 kts | 315° |
| 2026-05-04 19:23 | 18.56841 | -66.11278 | 34035 ft | 449 kts | 314° |
| 2026-05-04 19:24 | 18.61354 | -66.15855 | 34034 ft | 450 kts | 314° |
| 2026-05-04 19:24 | 18.65870 | -66.20429 | 34046 ft | 450 kts | 314° |
| 2026-05-04 19:25 | 18.69650 | -66.24265 | 34036 ft | 451 kts | 314° |
| 2026-05-04 19:25 | 18.74169 | -66.28861 | 34043 ft | 451 kts | 314° |
| 2026-05-04 19:26 | 18.78687 | -66.33445 | 34041 ft | 451 kts | 314° |
| 2026-05-04 19:26 | 18.83245 | -66.38068 | 34044 ft | 451 kts | 314° |
| 2026-05-04 19:27 | 18.87771 | -66.42677 | 34031 ft | 452 kts | 314° |
| 2026-05-04 19:27 | 18.92258 | -66.47320 | 34032 ft | 451 kts | 309° |
| 2026-05-04 19:28 | 18.95929 | -66.52654 | 34042 ft | 449 kts | 302° |
| 2026-05-04 19:28 | 18.99464 | -66.58098 | 34035 ft | 449 kts | 303° |
| 2026-05-04 19:29 | 19.03006 | -66.63548 | 34035 ft | 449 kts | 302° |
| 2026-05-04 19:29 | 19.06535 | -66.68998 | 34034 ft | 449 kts | 302° |
| 2026-05-04 19:30 | 19.10110 | -66.74522 | 34034 ft | 449 kts | 302° |
| 2026-05-04 19:30 | 19.13663 | -66.80015 | 34039 ft | 449 kts | 302° |
| 2026-05-04 19:31 | 19.17190 | -66.85476 | 34041 ft | 450 kts | 302° |
| 2026-05-04 19:31 | 19.20719 | -66.90954 | 34046 ft | 450 kts | 302° |
| 2026-05-04 19:32 | 19.24267 | -66.96466 | 34044 ft | 450 kts | 302° |
| 2026-05-04 19:32 | 19.27801 | -67.01945 | 34044 ft | 450 kts | 302° |
| 2026-05-04 19:33 | 19.31325 | -67.07419 | 34042 ft | 450 kts | 302° |
| 2026-05-04 19:33 | 19.34849 | -67.12896 | 34060 ft | 450 kts | 302° |
| 2026-05-04 19:34 | 19.38375 | -67.18384 | 34056 ft | 450 kts | 302° |
| 2026-05-04 19:34 | 19.41898 | -67.23869 | 34059 ft | 450 kts | 302° |
| 2026-05-04 19:35 | 19.45445 | -67.29396 | 34058 ft | 450 kts | 302° |
| 2026-05-04 19:35 | 19.48959 | -67.34878 | 34060 ft | 449 kts | 302° |
| 2026-05-04 19:36 | 19.52494 | -67.40397 | 34054 ft | 449 kts | 302° |
| 2026-05-04 19:36 | 19.56001 | -67.45875 | 34058 ft | 448 kts | 302° |
| 2026-05-04 19:37 | 19.59521 | -67.51391 | 34055 ft | 448 kts | 302° |
| 2026-05-04 19:37 | 19.63013 | -67.56857 | 34052 ft | 447 kts | 302° |
| 2026-05-04 19:38 | 19.66519 | -67.62356 | 34049 ft | 447 kts | 302° |
| 2026-05-04 19:38 | 19.69997 | -67.67820 | 34053 ft | 447 kts | 302° |
| 2026-05-04 19:39 | 19.73473 | -67.73280 | 34053 ft | 446 kts | 302° |
| 2026-05-04 19:39 | 19.76975 | -67.78781 | 34055 ft | 446 kts | 302° |
| 2026-05-04 19:40 | 19.80446 | -67.84239 | 34052 ft | 446 kts | 302° |
| 2026-05-04 19:40 | 19.83916 | -67.89704 | 34051 ft | 446 kts | 302° |
| 2026-05-04 19:41 | 19.87381 | -67.95160 | 34050 ft | 445 kts | 302° |
| 2026-05-04 19:41 | 19.90818 | -68.00587 | 34047 ft | 445 kts | 302° |
| 2026-05-04 19:42 | 19.94272 | -68.06039 | 34052 ft | 444 kts | 302° |
| 2026-05-04 19:42 | 19.97743 | -68.11530 | 34049 ft | 444 kts | 302° |
| 2026-05-04 19:43 | 20.01188 | -68.16997 | 34050 ft | 444 kts | 301° |
| 2026-05-04 19:43 | 20.04628 | -68.22445 | 34050 ft | 444 kts | 302° |
| 2026-05-04 19:44 | 20.08085 | -68.27900 | 34054 ft | 444 kts | 301° |
| 2026-05-04 19:44 | 20.10937 | -68.32431 | 34049 ft | 444 kts | 301° |
| 2026-05-04 19:45 | 20.14375 | -68.37897 | 34051 ft | 444 kts | 301° |
| 2026-05-04 19:45 | 20.17809 | -68.43357 | 34054 ft | 443 kts | 301° |
| 2026-05-04 19:46 | 20.21235 | -68.48808 | 34049 ft | 443 kts | 301° |
| 2026-05-04 19:46 | 20.24668 | -68.54274 | 34052 ft | 443 kts | 301° |
| 2026-05-04 19:47 | 20.27950 | -68.59820 | 34048 ft | 441 kts | 298° |
| 2026-05-04 19:47 | 20.30988 | -68.65495 | 34052 ft | 441 kts | 297° |
| 2026-05-04 19:48 | 20.33992 | -68.71195 | 34050 ft | 441 kts | 297° |
| 2026-05-04 19:48 | 20.37048 | -68.76862 | 34051 ft | 440 kts | 298° |
| 2026-05-04 19:49 | 20.40142 | -68.82495 | 34047 ft | 440 kts | 298° |
| 2026-05-04 19:49 | 20.43229 | -68.88128 | 34050 ft | 440 kts | 297° |
| 2026-05-04 19:50 | 20.46296 | -68.93783 | 34049 ft | 440 kts | 297° |
| 2026-05-04 19:50 | 20.49315 | -68.99379 | 34047 ft | 440 kts | 297° |
| 2026-05-04 19:51 | 20.52443 | -69.05162 | 34022 ft | 450 kts | 297° |
| 2026-05-04 19:51 | 20.55613 | -69.11017 | 34022 ft | 457 kts | 297° |
| 2026-05-04 19:52 | 20.58820 | -69.16941 | 34022 ft | 462 kts | 297° |
| 2026-05-04 19:52 | 20.62062 | -69.22923 | 34023 ft | 462 kts | 297° |
| 2026-05-04 19:53 | 20.65279 | -69.28869 | 34015 ft | 462 kts | 297° |
| 2026-05-04 19:53 | 20.68488 | -69.34824 | 34018 ft | 462 kts | 297° |
| 2026-05-04 19:54 | 20.71735 | -69.40865 | 34031 ft | 463 kts | 297° |
| 2026-05-04 19:54 | 20.74942 | -69.46833 | 34039 ft | 463 kts | 297° |
| 2026-05-04 19:55 | 20.78171 | -69.52845 | 34034 ft | 463 kts | 297° |
| 2026-05-04 19:55 | 20.81392 | -69.58855 | 34040 ft | 463 kts | 297° |
| 2026-05-04 19:56 | 20.84609 | -69.64862 | 34032 ft | 462 kts | 297° |
| 2026-05-04 19:56 | 20.87810 | -69.70825 | 34037 ft | 463 kts | 297° |
| 2026-05-04 19:57 | 20.91007 | -69.76799 | 34038 ft | 463 kts | 297° |
| 2026-05-04 19:57 | 20.94201 | -69.82774 | 34040 ft | 463 kts | 297° |
| 2026-05-04 19:58 | 20.97415 | -69.88794 | 34036 ft | 462 kts | 297° |
| 2026-05-04 19:58 | 21.00191 | -69.94005 | 34037 ft | 462 kts | 297° |
| 2026-05-04 19:59 | 21.03427 | -70.00064 | 34035 ft | 462 kts | 296° |
| 2026-05-04 19:59 | 21.06625 | -70.06074 | 34036 ft | 461 kts | 296° |
| 2026-05-04 20:00 | 21.09823 | -70.12089 | 34036 ft | 461 kts | 296° |
| 2026-05-04 20:00 | 21.13017 | -70.18097 | 34034 ft | 461 kts | 296° |
| 2026-05-04 20:01 | 21.15670 | -70.23101 | 34035 ft | 461 kts | 296° |
| 2026-05-04 20:01 | 21.18829 | -70.29063 | 34037 ft | 460 kts | 296° |
| 2026-05-04 20:02 | 21.22004 | -70.35073 | 34038 ft | 460 kts | 296° |
| 2026-05-04 20:02 | 21.25159 | -70.41041 | 34035 ft | 460 kts | 296° |
| 2026-05-04 20:03 | 21.28312 | -70.47005 | 34035 ft | 460 kts | 296° |
| 2026-05-04 20:03 | 21.31490 | -70.53012 | 34036 ft | 460 kts | 296° |
| 2026-05-04 20:04 | 21.34658 | -70.59018 | 34033 ft | 459 kts | 296° |
| 2026-05-04 20:04 | 21.37786 | -70.64975 | 34043 ft | 459 kts | 296° |
| 2026-05-04 20:05 | 21.41033 | -70.71157 | 34032 ft | 459 kts | 296° |
| 2026-05-04 20:05 | 21.44217 | -70.77210 | 34034 ft | 459 kts | 296° |
| 2026-05-04 20:06 | 21.47334 | -70.83149 | 34038 ft | 459 kts | 296° |
| 2026-05-04 20:06 | 21.50483 | -70.89166 | 34035 ft | 459 kts | 296° |
| 2026-05-04 20:07 | 21.53634 | -70.95187 | 34037 ft | 459 kts | 296° |
| 2026-05-04 20:07 | 21.56797 | -71.01244 | 34037 ft | 459 kts | 296° |
| 2026-05-04 20:08 | 21.59892 | -71.07292 | 34098 ft | 457 kts | 295° |
| 2026-05-04 20:08 | 21.61354 | -71.10287 | 34578 ft | 447 kts | 294° |
| 2026-05-04 20:08 | 21.62749 | -71.13189 | 35392 ft | 430 kts | 294° |
| 2026-05-04 20:08 | 21.64111 | -71.16031 | 35754 ft | 426 kts | 294° |
| 2026-05-04 20:09 | 21.65467 | -71.18861 | 35945 ft | 426 kts | 294° |
| 2026-05-04 20:09 | 21.66839 | -71.21719 | 35595 ft | 434 kts | 294° |
| 2026-05-04 20:09 | 21.68250 | -71.24643 | 34706 ft | 434 kts | 294° |
| 2026-05-04 20:09 | 21.69632 | -71.27479 | 34268 ft | 425 kts | 294° |
| 2026-05-04 20:10 | 21.70995 | -71.30270 | 34092 ft | 436 kts | 294° |
| 2026-05-04 20:10 | 21.72442 | -71.33245 | 33975 ft | 443 kts | 294° |
| 2026-05-04 20:10 | 21.73914 | -71.36275 | 34009 ft | 447 kts | 294° |
| 2026-05-04 20:11 | 21.76322 | -71.41239 | 34009 ft | 453 kts | 294° |
| 2026-05-04 20:11 | 21.79250 | -71.47295 | 34007 ft | 454 kts | 294° |
| 2026-05-04 20:12 | 21.82201 | -71.53390 | 34006 ft | 453 kts | 294° |
| 2026-05-04 20:12 | 21.85132 | -71.59450 | 34008 ft | 452 kts | 294° |
| 2026-05-04 20:13 | 21.88043 | -71.65507 | 34009 ft | 452 kts | 294° |
| 2026-05-04 20:13 | 21.90973 | -71.71587 | 34006 ft | 451 kts | 294° |
| 2026-05-04 20:14 | 21.93883 | -71.77621 | 34004 ft | 451 kts | 294° |
| 2026-05-04 20:14 | 21.96764 | -71.83611 | 34007 ft | 450 kts | 293° |
| 2026-05-04 20:15 | 21.99635 | -71.89590 | 34004 ft | 449 kts | 293° |
| 2026-05-04 20:15 | 22.02522 | -71.95602 | 34006 ft | 448 kts | 293° |
| 2026-05-04 20:16 | 22.05389 | -72.01576 | 34005 ft | 448 kts | 293° |
| 2026-05-04 20:16 | 22.08254 | -72.07566 | 34006 ft | 447 kts | 293° |
| 2026-05-04 20:17 | 22.11110 | -72.13546 | 34006 ft | 447 kts | 293° |
| 2026-05-04 20:17 | 22.13956 | -72.19510 | 34006 ft | 447 kts | 293° |
| 2026-05-04 20:18 | 22.16821 | -72.25508 | 34005 ft | 446 kts | 293° |
| 2026-05-04 20:18 | 22.17760 | -72.27479 | 34000 ft | 446 kts | 293° |